sensor_id;sensor_type;location;lat;lon;timestamp;P1;durP1;ratioP1;P2;durP2;ratioP2
25567;SDS011;13455;51.480;7.594;2022-10-23T00:03:37;11.57;;;2.70;;
25567;SDS011;13455;51.480;7.594;2022-10-23T00:06:05;12.52;;;2.90;;
25567;SDS011;13455;51.480;7.594;2022-10-23T00:08:31;9.75;;;2.83;;
25567;SDS011;13455;51.480;7.594;2022-10-23T00:10:57;12.07;;;3.20;;
25567;SDS011;13455;51.480;7.594;2022-10-23T00:13:23;8.52;;;2.88;;
25567;SDS011;13455;51.480;7.594;2022-10-23T00:15:48;8.93;;;3.00;;
25567;SDS011;13455;51.480;7.594;2022-10-23T00:18:14;12.80;;;3.07;;
25567;SDS011;13455;51.480;7.594;2022-10-23T00:20:39;9.00;;;3.00;;
25567;SDS011;13455;51.480;7.594;2022-10-23T00:23:05;11.30;;;3.20;;
25567;SDS011;13455;51.480;7.594;2022-10-23T00:25:31;12.93;;;2.97;;
25567;SDS011;13455;51.480;7.594;2022-10-23T00:27:57;13.17;;;3.20;;
25567;SDS011;13455;51.480;7.594;2022-10-23T00:30:23;7.47;;;3.00;;
25567;SDS011;13455;51.480;7.594;2022-10-23T00:32:49;10.02;;;2.75;;
25567;SDS011;13455;51.480;7.594;2022-10-23T00:35:14;9.87;;;3.30;;
25567;SDS011;13455;51.480;7.594;2022-10-23T00:37:40;10.73;;;3.20;;
25567;SDS011;13455;51.480;7.594;2022-10-23T00:40:06;9.90;;;3.03;;
25567;SDS011;13455;51.480;7.594;2022-10-23T00:42:32;11.27;;;3.22;;
25567;SDS011;13455;51.480;7.594;2022-10-23T00:45:07;10.73;;;3.20;;
25567;SDS011;13455;51.480;7.594;2022-10-23T00:47:39;10.95;;;3.05;;
25567;SDS011;13455;51.480;7.594;2022-10-23T00:50:05;10.20;;;2.90;;
25567;SDS011;13455;51.480;7.594;2022-10-23T00:52:31;8.77;;;2.63;;
25567;SDS011;13455;51.480;7.594;2022-10-23T00:54:59;8.82;;;3.00;;
25567;SDS011;13455;51.480;7.594;2022-10-23T00:57:26;10.52;;;2.90;;
25567;SDS011;13455;51.480;7.594;2022-10-23T00:59:52;10.30;;;3.10;;
25567;SDS011;13455;51.480;7.594;2022-10-23T01:02:17;6.93;;;2.90;;
25567;SDS011;13455;51.480;7.594;2022-10-23T01:04:43;9.77;;;3.20;;
25567;SDS011;13455;51.480;7.594;2022-10-23T01:12:51;10.25;;;2.80;;
25567;SDS011;13455;51.480;7.594;2022-10-23T01:15:35;12.53;;;3.10;;
25567;SDS011;13455;51.480;7.594;2022-10-23T01:34:22;8.35;;;3.00;;
25567;SDS011;13455;51.480;7.594;2022-10-23T01:36:48;9.02;;;2.92;;
25567;SDS011;13455;51.480;7.594;2022-10-23T01:39:50;12.93;;;3.17;;
25567;SDS011;13455;51.480;7.594;2022-10-23T01:42:12;11.25;;;3.25;;
25567;SDS011;13455;51.480;7.594;2022-10-23T01:44:48;12.55;;;3.42;;
25567;SDS011;13455;51.480;7.594;2022-10-23T01:47:31;12.52;;;3.33;;
25567;SDS011;13455;51.480;7.594;2022-10-23T01:49:59;9.25;;;3.55;;
25567;SDS011;13455;51.480;7.594;2022-10-23T01:52:27;9.33;;;2.90;;
25567;SDS011;13455;51.480;7.594;2022-10-23T01:54:54;15.93;;;3.47;;
25567;SDS011;13455;51.480;7.594;2022-10-23T01:57:23;10.60;;;3.10;;
25567;SDS011;13455;51.480;7.594;2022-10-23T01:59:56;10.65;;;3.15;;
25567;SDS011;13455;51.480;7.594;2022-10-23T02:02:27;10.70;;;3.10;;
25567;SDS011;13455;51.480;7.594;2022-10-23T02:05:01;12.20;;;3.10;;
25567;SDS011;13455;51.480;7.594;2022-10-23T02:07:32;12.85;;;3.40;;
25567;SDS011;13455;51.480;7.594;2022-10-23T02:09:58;10.32;;;3.10;;
25567;SDS011;13455;51.480;7.594;2022-10-23T02:15:04;12.02;;;3.20;;
25567;SDS011;13455;51.480;7.594;2022-10-23T02:20:34;12.88;;;2.97;;
25567;SDS011;13455;51.480;7.594;2022-10-23T02:23:11;12.27;;;2.95;;
25567;SDS011;13455;51.480;7.594;2022-10-23T02:26:15;13.00;;;2.80;;
25567;SDS011;13455;51.480;7.594;2022-10-23T02:28:46;9.65;;;2.70;;
25567;SDS011;13455;51.480;7.594;2022-10-23T02:31:16;10.95;;;3.30;;
25567;SDS011;13455;51.480;7.594;2022-10-23T02:33:45;13.68;;;3.10;;
25567;SDS011;13455;51.480;7.594;2022-10-23T02:36:12;9.07;;;3.20;;
25567;SDS011;13455;51.480;7.594;2022-10-23T02:38:39;10.15;;;3.20;;
25567;SDS011;13455;51.480;7.594;2022-10-23T02:52:58;10.43;;;2.72;;
25567;SDS011;13455;51.480;7.594;2022-10-23T02:55:47;13.10;;;2.90;;
25567;SDS011;13455;51.480;7.594;2022-10-23T03:00:53;10.30;;;3.10;;
25567;SDS011;13455;51.480;7.594;2022-10-23T03:03:29;12.93;;;3.10;;
25567;SDS011;13455;51.480;7.594;2022-10-23T03:05:59;12.35;;;2.90;;
25567;SDS011;13455;51.480;7.594;2022-10-23T03:08:24;8.90;;;2.90;;
25567;SDS011;13455;51.480;7.594;2022-10-23T03:10:50;9.57;;;3.03;;
25567;SDS011;13455;51.480;7.594;2022-10-23T03:13:16;10.18;;;2.90;;
25567;SDS011;13455;51.480;7.594;2022-10-23T03:15:42;11.40;;;2.90;;
25567;SDS011;13455;51.480;7.594;2022-10-23T03:18:08;8.55;;;2.78;;
25567;SDS011;13455;51.480;7.594;2022-10-23T03:20:33;6.67;;;2.53;;
25567;SDS011;13455;51.480;7.594;2022-10-23T03:22:59;8.15;;;2.63;;
25567;SDS011;13455;51.480;7.594;2022-10-23T03:25:25;10.07;;;2.92;;
25567;SDS011;13455;51.480;7.594;2022-10-23T03:27:50;12.00;;;3.15;;
25567;SDS011;13455;51.480;7.594;2022-10-23T03:30:16;10.52;;;2.78;;
25567;SDS011;13455;51.480;7.594;2022-10-23T03:32:42;7.18;;;2.90;;
25567;SDS011;13455;51.480;7.594;2022-10-23T03:35:08;9.13;;;2.83;;
25567;SDS011;13455;51.480;7.594;2022-10-23T03:37:33;8.80;;;2.78;;
25567;SDS011;13455;51.480;7.594;2022-10-23T03:39:59;9.80;;;2.85;;
25567;SDS011;13455;51.480;7.594;2022-10-23T03:42:24;7.85;;;2.90;;
25567;SDS011;13455;51.480;7.594;2022-10-23T03:44:50;10.73;;;2.83;;
25567;SDS011;13455;51.480;7.594;2022-10-23T03:47:16;12.50;;;3.03;;
25567;SDS011;13455;51.480;7.594;2022-10-23T03:49:41;8.07;;;2.67;;
25567;SDS011;13455;51.480;7.594;2022-10-23T03:52:07;9.43;;;2.60;;
25567;SDS011;13455;51.480;7.594;2022-10-23T03:54:33;10.43;;;2.90;;
25567;SDS011;13455;51.480;7.594;2022-10-23T03:56:59;7.75;;;2.60;;
25567;SDS011;13455;51.480;7.594;2022-10-23T03:59:25;8.27;;;2.75;;
25567;SDS011;13455;51.480;7.594;2022-10-23T04:01:51;11.65;;;2.85;;
25567;SDS011;13455;51.480;7.594;2022-10-23T04:04:17;7.23;;;3.00;;
25567;SDS011;13455;51.480;7.594;2022-10-23T04:06:42;9.33;;;3.20;;
25567;SDS011;13455;51.480;7.594;2022-10-23T04:09:08;10.43;;;2.87;;
25567;SDS011;13455;51.480;7.594;2022-10-23T04:11:34;11.85;;;2.83;;
25567;SDS011;13455;51.480;7.594;2022-10-23T04:13:59;8.82;;;2.63;;
25567;SDS011;13455;51.480;7.594;2022-10-23T04:16:25;7.70;;;2.30;;
25567;SDS011;13455;51.480;7.594;2022-10-23T04:18:51;8.00;;;2.33;;
25567;SDS011;13455;51.480;7.594;2022-10-23T04:21:16;8.13;;;2.67;;
25567;SDS011;13455;51.480;7.594;2022-10-23T04:23:42;6.55;;;2.40;;
25567;SDS011;13455;51.480;7.594;2022-10-23T04:26:08;8.98;;;2.80;;
25567;SDS011;13455;51.480;7.594;2022-10-23T04:28:33;8.77;;;2.35;;
25567;SDS011;13455;51.480;7.594;2022-10-23T04:30:59;8.38;;;2.40;;
25567;SDS011;13455;51.480;7.594;2022-10-23T04:33:25;7.63;;;2.50;;
25567;SDS011;13455;51.480;7.594;2022-10-23T04:35:50;6.85;;;2.13;;
25567;SDS011;13455;51.480;7.594;2022-10-23T04:38:16;9.77;;;2.40;;
25567;SDS011;13455;51.480;7.594;2022-10-23T04:40:42;9.33;;;2.63;;
25567;SDS011;13455;51.480;7.594;2022-10-23T04:43:07;7.93;;;2.63;;
25567;SDS011;13455;51.480;7.594;2022-10-23T04:45:33;8.47;;;2.40;;
25567;SDS011;13455;51.480;7.594;2022-10-23T04:47:58;8.85;;;2.70;;
25567;SDS011;13455;51.480;7.594;2022-10-23T04:50:24;9.40;;;2.60;;
25567;SDS011;13455;51.480;7.594;2022-10-23T04:52:53;8.10;;;2.40;;
25567;SDS011;13455;51.480;7.594;2022-10-23T04:55:20;8.85;;;2.50;;
25567;SDS011;13455;51.480;7.594;2022-10-23T04:57:46;9.00;;;2.50;;
25567;SDS011;13455;51.480;7.594;2022-10-23T05:00:12;9.47;;;2.60;;
25567;SDS011;13455;51.480;7.594;2022-10-23T05:02:38;8.73;;;2.50;;
25567;SDS011;13455;51.480;7.594;2022-10-23T05:05:05;9.33;;;2.50;;
25567;SDS011;13455;51.480;7.594;2022-10-23T05:07:31;9.53;;;2.53;;
25567;SDS011;13455;51.480;7.594;2022-10-23T05:09:57;8.50;;;2.50;;
25567;SDS011;13455;51.480;7.594;2022-10-23T05:12:23;6.22;;;2.45;;
25567;SDS011;13455;51.480;7.594;2022-10-23T05:14:50;7.32;;;2.60;;
25567;SDS011;13455;51.480;7.594;2022-10-23T05:17:17;8.00;;;3.20;;
25567;SDS011;13455;51.480;7.594;2022-10-23T05:19:47;5.83;;;2.40;;
25567;SDS011;13455;51.480;7.594;2022-10-23T05:22:18;8.43;;;2.47;;
25567;SDS011;13455;51.480;7.594;2022-10-23T05:24:46;11.20;;;2.85;;
25567;SDS011;13455;51.480;7.594;2022-10-23T05:27:12;9.35;;;2.33;;
25567;SDS011;13455;51.480;7.594;2022-10-23T05:29:38;9.27;;;2.50;;
25567;SDS011;13455;51.480;7.594;2022-10-23T05:32:04;8.27;;;2.60;;
25567;SDS011;13455;51.480;7.594;2022-10-23T05:34:31;8.02;;;2.72;;
25567;SDS011;13455;51.480;7.594;2022-10-23T05:37:00;7.57;;;2.47;;
25567;SDS011;13455;51.480;7.594;2022-10-23T05:39:27;7.53;;;2.65;;
25567;SDS011;13455;51.480;7.594;2022-10-23T05:41:53;7.18;;;2.67;;
25567;SDS011;13455;51.480;7.594;2022-10-23T05:44:19;10.45;;;2.42;;
25567;SDS011;13455;51.480;7.594;2022-10-23T05:46:45;8.00;;;2.42;;
25567;SDS011;13455;51.480;7.594;2022-10-23T05:49:10;12.07;;;2.50;;
25567;SDS011;13455;51.480;7.594;2022-10-23T05:51:36;9.07;;;2.50;;
25567;SDS011;13455;51.480;7.594;2022-10-23T05:54:04;10.20;;;2.60;;
25567;SDS011;13455;51.480;7.594;2022-10-23T05:56:33;7.70;;;2.50;;
25567;SDS011;13455;51.480;7.594;2022-10-23T05:58:59;6.72;;;2.38;;
25567;SDS011;13455;51.480;7.594;2022-10-23T06:01:25;6.00;;;2.42;;
25567;SDS011;13455;51.480;7.594;2022-10-23T06:03:51;7.37;;;2.40;;
25567;SDS011;13455;51.480;7.594;2022-10-23T06:06:16;7.67;;;2.50;;
25567;SDS011;13455;51.480;7.594;2022-10-23T06:08:42;6.23;;;2.30;;
25567;SDS011;13455;51.480;7.594;2022-10-23T06:11:11;7.70;;;2.60;;
25567;SDS011;13455;51.480;7.594;2022-10-23T06:13:40;6.63;;;2.35;;
25567;SDS011;13455;51.480;7.594;2022-10-23T06:16:14;6.60;;;2.30;;
25567;SDS011;13455;51.480;7.594;2022-10-23T06:18:42;6.38;;;2.25;;
25567;SDS011;13455;51.480;7.594;2022-10-23T06:21:09;9.30;;;2.45;;
25567;SDS011;13455;51.480;7.594;2022-10-23T06:23:35;6.70;;;2.20;;
25567;SDS011;13455;51.480;7.594;2022-10-23T06:26:02;4.80;;;2.00;;
25567;SDS011;13455;51.480;7.594;2022-10-23T06:28:29;5.97;;;2.05;;
25567;SDS011;13455;51.480;7.594;2022-10-23T06:30:54;8.63;;;2.30;;
25567;SDS011;13455;51.480;7.594;2022-10-23T06:33:20;7.57;;;2.10;;
25567;SDS011;13455;51.480;7.594;2022-10-23T06:35:46;6.60;;;2.30;;
25567;SDS011;13455;51.480;7.594;2022-10-23T06:38:11;11.35;;;2.50;;
25567;SDS011;13455;51.480;7.594;2022-10-23T06:40:37;5.35;;;2.10;;
25567;SDS011;13455;51.480;7.594;2022-10-23T06:43:03;8.60;;;2.30;;
25567;SDS011;13455;51.480;7.594;2022-10-23T06:45:29;6.13;;;2.30;;
25567;SDS011;13455;51.480;7.594;2022-10-23T06:47:58;8.90;;;2.20;;
25567;SDS011;13455;51.480;7.594;2022-10-23T06:50:24;7.50;;;2.40;;
25567;SDS011;13455;51.480;7.594;2022-10-23T06:52:50;9.60;;;2.10;;
25567;SDS011;13455;51.480;7.594;2022-10-23T06:55:17;7.63;;;2.30;;
25567;SDS011;13455;51.480;7.594;2022-10-23T06:57:43;6.18;;;2.15;;
25567;SDS011;13455;51.480;7.594;2022-10-23T07:00:09;8.07;;;2.20;;
25567;SDS011;13455;51.480;7.594;2022-10-23T07:02:35;7.50;;;2.03;;
25567;SDS011;13455;51.480;7.594;2022-10-23T07:05:01;7.07;;;1.90;;
25567;SDS011;13455;51.480;7.594;2022-10-23T07:07:30;7.87;;;2.23;;
25567;SDS011;13455;51.480;7.594;2022-10-23T07:09:56;5.83;;;2.00;;
25567;SDS011;13455;51.480;7.594;2022-10-23T07:12:21;7.17;;;2.10;;
25567;SDS011;13455;51.480;7.594;2022-10-23T07:14:47;6.07;;;2.00;;
25567;SDS011;13455;51.480;7.594;2022-10-23T07:17:13;6.57;;;1.97;;
25567;SDS011;13455;51.480;7.594;2022-10-23T07:19:38;5.97;;;1.83;;
25567;SDS011;13455;51.480;7.594;2022-10-23T07:22:04;7.57;;;1.85;;
25567;SDS011;13455;51.480;7.594;2022-10-23T07:24:30;6.82;;;1.90;;
25567;SDS011;13455;51.480;7.594;2022-10-23T07:27:00;5.78;;;1.90;;
25567;SDS011;13455;51.480;7.594;2022-10-23T07:29:27;7.35;;;1.80;;
25567;SDS011;13455;51.480;7.594;2022-10-23T07:31:53;6.30;;;1.73;;
25567;SDS011;13455;51.480;7.594;2022-10-23T07:34:18;9.07;;;2.03;;
25567;SDS011;13455;51.480;7.594;2022-10-23T07:36:44;5.03;;;1.70;;
25567;SDS011;13455;51.480;7.594;2022-10-23T07:39:09;6.70;;;1.73;;
25567;SDS011;13455;51.480;7.594;2022-10-23T07:41:36;4.23;;;1.80;;
25567;SDS011;13455;51.480;7.594;2022-10-23T07:44:01;6.60;;;2.00;;
25567;SDS011;13455;51.480;7.594;2022-10-23T07:46:27;4.65;;;1.60;;
25567;SDS011;13455;51.480;7.594;2022-10-23T07:48:53;7.20;;;1.83;;
25567;SDS011;13455;51.480;7.594;2022-10-23T07:51:19;9.70;;;1.90;;
25567;SDS011;13455;51.480;7.594;2022-10-23T07:53:44;4.80;;;1.60;;
25567;SDS011;13455;51.480;7.594;2022-10-23T07:56:17;4.27;;;1.60;;
25567;SDS011;13455;51.480;7.594;2022-10-23T07:58:49;5.87;;;1.90;;
25567;SDS011;13455;51.480;7.594;2022-10-23T08:01:18;6.05;;;1.88;;
25567;SDS011;13455;51.480;7.594;2022-10-23T08:04:06;6.90;;;1.67;;
25567;SDS011;13455;51.480;7.594;2022-10-23T08:06:32;4.53;;;1.52;;
25567;SDS011;13455;51.480;7.594;2022-10-23T08:08:59;6.77;;;1.60;;
25567;SDS011;13455;51.480;7.594;2022-10-23T08:11:25;4.95;;;1.70;;
25567;SDS011;13455;51.480;7.594;2022-10-23T08:13:53;6.32;;;1.60;;
25567;SDS011;13455;51.480;7.594;2022-10-23T08:16:20;8.50;;;1.70;;
25567;SDS011;13455;51.480;7.594;2022-10-23T08:18:46;4.43;;;1.50;;
25567;SDS011;13455;51.480;7.594;2022-10-23T08:21:13;3.60;;;1.50;;
25567;SDS011;13455;51.480;7.594;2022-10-23T08:23:40;7.67;;;1.70;;
25567;SDS011;13455;51.480;7.594;2022-10-23T08:26:05;6.33;;;1.67;;
25567;SDS011;13455;51.480;7.594;2022-10-23T08:28:32;6.43;;;1.70;;
25567;SDS011;13455;51.480;7.594;2022-10-23T08:30:58;5.40;;;1.53;;
25567;SDS011;13455;51.480;7.594;2022-10-23T08:33:29;5.80;;;1.70;;
25567;SDS011;13455;51.480;7.594;2022-10-23T08:35:55;6.77;;;1.73;;
25567;SDS011;13455;51.480;7.594;2022-10-23T08:38:20;7.75;;;1.88;;
25567;SDS011;13455;51.480;7.594;2022-10-23T08:40:47;7.05;;;1.70;;
25567;SDS011;13455;51.480;7.594;2022-10-23T08:43:35;4.07;;;1.67;;
25567;SDS011;13455;51.480;7.594;2022-10-23T08:46:03;6.40;;;1.83;;
25567;SDS011;13455;51.480;7.594;2022-10-23T08:48:37;6.45;;;1.50;;
25567;SDS011;13455;51.480;7.594;2022-10-23T08:51:20;6.03;;;1.52;;
25567;SDS011;13455;51.480;7.594;2022-10-23T08:56:27;6.72;;;1.50;;
25567;SDS011;13455;51.480;7.594;2022-10-23T08:59:19;4.53;;;1.42;;
25567;SDS011;13455;51.480;7.594;2022-10-23T09:01:46;5.97;;;1.40;;
25567;SDS011;13455;51.480;7.594;2022-10-23T09:04:19;3.58;;;1.45;;
25567;SDS011;13455;51.480;7.594;2022-10-23T09:12:04;6.35;;;1.40;;
25567;SDS011;13455;51.480;7.594;2022-10-23T09:17:24;4.43;;;1.30;;
25567;SDS011;13455;51.480;7.594;2022-10-23T09:20:38;5.15;;;1.40;;
25567;SDS011;13455;51.480;7.594;2022-10-23T09:22:38;5.90;;;1.25;;
25567;SDS011;13455;51.480;7.594;2022-10-23T09:25:15;7.15;;;1.40;;
25567;SDS011;13455;51.480;7.594;2022-10-23T09:27:48;3.83;;;1.10;;
25567;SDS011;13455;51.480;7.594;2022-10-23T09:35:49;6.68;;;1.50;;
25567;SDS011;13455;51.480;7.594;2022-10-23T09:40:55;5.47;;;1.00;;
25567;SDS011;13455;51.480;7.594;2022-10-23T09:43:22;6.07;;;1.00;;
25567;SDS011;13455;51.480;7.594;2022-10-23T09:45:55;3.15;;;1.20;;
25567;SDS011;13455;51.480;7.594;2022-10-23T09:48:25;5.10;;;1.13;;
25567;SDS011;13455;51.480;7.594;2022-10-23T09:50:52;4.72;;;1.30;;
25567;SDS011;13455;51.480;7.594;2022-10-23T09:53:30;5.83;;;1.10;;
25567;SDS011;13455;51.480;7.594;2022-10-23T09:56:01;5.13;;;0.90;;
25567;SDS011;13455;51.480;7.594;2022-10-23T09:58:34;5.43;;;1.00;;
25567;SDS011;13455;51.480;7.594;2022-10-23T10:01:02;4.65;;;1.00;;
25567;SDS011;13455;51.480;7.594;2022-10-23T10:03:28;5.28;;;1.10;;
25567;SDS011;13455;51.480;7.594;2022-10-23T10:05:55;5.10;;;1.10;;
25567;SDS011;13455;51.480;7.594;2022-10-23T10:10:51;5.10;;;0.90;;
25567;SDS011;13455;51.480;7.594;2022-10-23T10:18:46;4.97;;;0.98;;
25567;SDS011;13455;51.480;7.594;2022-10-23T10:24:25;2.70;;;0.95;;
25567;SDS011;13455;51.480;7.594;2022-10-23T10:30:03;3.22;;;0.93;;
25567;SDS011;13455;51.480;7.594;2022-10-23T10:40:41;5.67;;;1.00;;
25567;SDS011;13455;51.480;7.594;2022-10-23T10:48:54;5.40;;;1.02;;
25567;SDS011;13455;51.480;7.594;2022-10-23T10:56:46;3.88;;;1.00;;
25567;SDS011;13455;51.480;7.594;2022-10-23T10:59:31;4.57;;;1.10;;
25567;SDS011;13455;51.480;7.594;2022-10-23T11:04:48;3.10;;;1.00;;
25567;SDS011;13455;51.480;7.594;2022-10-23T11:07:29;6.75;;;1.10;;
25567;SDS011;13455;51.480;7.594;2022-10-23T11:10:02;4.20;;;0.90;;
25567;SDS011;13455;51.480;7.594;2022-10-23T11:12:37;6.43;;;1.00;;
25567;SDS011;13455;51.480;7.594;2022-10-23T11:15:10;5.32;;;1.10;;
25567;SDS011;13455;51.480;7.594;2022-10-23T11:17:42;4.32;;;0.98;;
25567;SDS011;13455;51.480;7.594;2022-10-23T11:20:29;4.23;;;0.90;;
25567;SDS011;13455;51.480;7.594;2022-10-23T11:26:59;4.15;;;1.00;;
25567;SDS011;13455;51.480;7.594;2022-10-23T11:37:18;3.60;;;1.10;;
25567;SDS011;13455;51.480;7.594;2022-10-23T11:42:47;5.67;;;1.20;;
25567;SDS011;13455;51.480;7.594;2022-10-23T11:50:29;4.20;;;1.10;;
25567;SDS011;13455;51.480;7.594;2022-10-23T11:56:26;4.88;;;1.00;;
25567;SDS011;13455;51.480;7.594;2022-10-23T12:01:21;4.85;;;1.00;;
25567;SDS011;13455;51.480;7.594;2022-10-23T12:07:13;7.82;;;1.00;;
25567;SDS011;13455;51.480;7.594;2022-10-23T12:14:36;7.97;;;0.90;;
25567;SDS011;13455;51.480;7.594;2022-10-23T12:19:51;4.55;;;0.95;;
25567;SDS011;13455;51.480;7.594;2022-10-23T12:22:19;7.60;;;1.30;;
25567;SDS011;13455;51.480;7.594;2022-10-23T12:40:18;5.30;;;1.17;;
25567;SDS011;13455;51.480;7.594;2022-10-23T12:42:51;4.80;;;1.20;;
25567;SDS011;13455;51.480;7.594;2022-10-23T12:45:21;4.03;;;1.20;;
25567;SDS011;13455;51.480;7.594;2022-10-23T12:47:52;9.02;;;1.35;;
25567;SDS011;13455;51.480;7.594;2022-10-23T12:50:19;5.10;;;1.30;;
25567;SDS011;13455;51.480;7.594;2022-10-23T12:52:57;5.25;;;1.08;;
25567;SDS011;13455;51.480;7.594;2022-10-23T12:55:28;9.48;;;1.30;;
25567;SDS011;13455;51.480;7.594;2022-10-23T12:57:56;6.32;;;1.20;;
25567;SDS011;13455;51.480;7.594;2022-10-23T13:00:22;6.20;;;1.30;;
25567;SDS011;13455;51.480;7.594;2022-10-23T13:02:58;7.15;;;1.40;;
25567;SDS011;13455;51.480;7.594;2022-10-23T13:05:26;6.88;;;1.20;;
25567;SDS011;13455;51.480;7.594;2022-10-23T13:07:53;4.23;;;1.10;;
25567;SDS011;13455;51.480;7.594;2022-10-23T13:10:20;5.10;;;1.25;;
25567;SDS011;13455;51.480;7.594;2022-10-23T13:12:51;6.93;;;1.40;;
25567;SDS011;13455;51.480;7.594;2022-10-23T13:15:18;5.90;;;1.27;;
25567;SDS011;13455;51.480;7.594;2022-10-23T13:17:47;6.43;;;1.20;;
25567;SDS011;13455;51.480;7.594;2022-10-23T13:20:27;6.65;;;1.60;;
25567;SDS011;13455;51.480;7.594;2022-10-23T13:25:53;6.18;;;1.50;;
25567;SDS011;13455;51.480;7.594;2022-10-23T13:30:45;6.90;;;1.30;;
25567;SDS011;13455;51.480;7.594;2022-10-23T13:33:25;6.43;;;1.40;;
25567;SDS011;13455;51.480;7.594;2022-10-23T13:38:44;10.63;;;1.70;;
25567;SDS011;13455;51.480;7.594;2022-10-23T13:41:17;7.68;;;1.60;;
25567;SDS011;13455;51.480;7.594;2022-10-23T13:43:45;6.15;;;1.58;;
25567;SDS011;13455;51.480;7.594;2022-10-23T13:46:14;7.22;;;1.40;;
25567;SDS011;13455;51.480;7.594;2022-10-23T13:48:41;6.93;;;1.50;;
25567;SDS011;13455;51.480;7.594;2022-10-23T13:51:14;5.22;;;1.40;;
25567;SDS011;13455;51.480;7.594;2022-10-23T13:53:45;8.07;;;1.63;;
25567;SDS011;13455;51.480;7.594;2022-10-23T13:56:12;8.60;;;1.35;;
25567;SDS011;13455;51.480;7.594;2022-10-23T13:58:39;7.30;;;1.73;;
25567;SDS011;13455;51.480;7.594;2022-10-23T14:01:06;9.00;;;1.42;;
25567;SDS011;13455;51.480;7.594;2022-10-23T14:03:37;9.15;;;1.60;;
25567;SDS011;13455;51.480;7.594;2022-10-23T14:06:03;6.82;;;1.40;;
25567;SDS011;13455;51.480;7.594;2022-10-23T14:08:29;6.45;;;1.50;;
25567;SDS011;13455;51.480;7.594;2022-10-23T14:10:54;7.23;;;1.50;;
25567;SDS011;13455;51.480;7.594;2022-10-23T14:13:20;8.23;;;1.57;;
25567;SDS011;13455;51.480;7.594;2022-10-23T14:15:51;7.38;;;1.40;;
25567;SDS011;13455;51.480;7.594;2022-10-23T14:18:17;5.20;;;1.33;;
25567;SDS011;13455;51.480;7.594;2022-10-23T14:20:44;5.63;;;1.33;;
25567;SDS011;13455;51.480;7.594;2022-10-23T14:23:10;6.97;;;1.42;;
25567;SDS011;13455;51.480;7.594;2022-10-23T14:25:36;6.38;;;1.40;;
25567;SDS011;13455;51.480;7.594;2022-10-23T14:28:02;7.10;;;1.40;;
25567;SDS011;13455;51.480;7.594;2022-10-23T14:30:28;6.20;;;1.40;;
25567;SDS011;13455;51.480;7.594;2022-10-23T14:32:54;5.30;;;1.40;;
25567;SDS011;13455;51.480;7.594;2022-10-23T14:35:20;6.13;;;1.25;;
25567;SDS011;13455;51.480;7.594;2022-10-23T14:37:46;6.55;;;1.60;;
25567;SDS011;13455;51.480;7.594;2022-10-23T14:40:12;8.65;;;1.50;;
25567;SDS011;13455;51.480;7.594;2022-10-23T14:42:38;7.20;;;1.70;;
25567;SDS011;13455;51.480;7.594;2022-10-23T14:45:04;8.37;;;1.47;;
25567;SDS011;13455;51.480;7.594;2022-10-23T14:47:30;6.00;;;1.80;;
25567;SDS011;13455;51.480;7.594;2022-10-23T14:49:57;7.78;;;1.50;;
25567;SDS011;13455;51.480;7.594;2022-10-23T14:52:23;6.10;;;1.30;;
25567;SDS011;13455;51.480;7.594;2022-10-23T14:54:49;9.97;;;1.77;;
25567;SDS011;13455;51.480;7.594;2022-10-23T14:57:16;7.32;;;1.50;;
25567;SDS011;13455;51.480;7.594;2022-10-23T14:59:44;10.32;;;1.95;;
25567;SDS011;13455;51.480;7.594;2022-10-23T15:02:10;8.00;;;1.33;;
25567;SDS011;13455;51.480;7.594;2022-10-23T15:04:37;5.40;;;1.30;;
25567;SDS011;13455;51.480;7.594;2022-10-23T15:07:03;5.80;;;1.45;;
25567;SDS011;13455;51.480;7.594;2022-10-23T15:09:28;8.27;;;2.30;;
25567;SDS011;13455;51.480;7.594;2022-10-23T15:11:56;7.53;;;1.60;;
25567;SDS011;13455;51.480;7.594;2022-10-23T15:14:22;6.07;;;1.63;;
25567;SDS011;13455;51.480;7.594;2022-10-23T15:16:48;9.38;;;1.70;;
25567;SDS011;13455;51.480;7.594;2022-10-23T15:19:13;8.23;;;1.70;;
25567;SDS011;13455;51.480;7.594;2022-10-23T15:21:40;8.70;;;1.88;;
25567;SDS011;13455;51.480;7.594;2022-10-23T15:24:06;4.85;;;1.60;;
25567;SDS011;13455;51.480;7.594;2022-10-23T15:26:32;6.57;;;1.70;;
25567;SDS011;13455;51.480;7.594;2022-10-23T15:28:59;8.68;;;1.73;;
25567;SDS011;13455;51.480;7.594;2022-10-23T15:33:57;7.15;;;1.80;;
25567;SDS011;13455;51.480;7.594;2022-10-23T15:36:23;8.65;;;1.60;;
25567;SDS011;13455;51.480;7.594;2022-10-23T15:38:49;8.13;;;1.60;;
25567;SDS011;13455;51.480;7.594;2022-10-23T15:41:16;9.45;;;2.10;;
25567;SDS011;13455;51.480;7.594;2022-10-23T15:43:46;8.32;;;1.80;;
25567;SDS011;13455;51.480;7.594;2022-10-23T15:46:11;6.73;;;1.70;;
25567;SDS011;13455;51.480;7.594;2022-10-23T15:48:37;7.85;;;1.77;;
25567;SDS011;13455;51.480;7.594;2022-10-23T15:51:03;11.23;;;2.00;;
25567;SDS011;13455;51.480;7.594;2022-10-23T15:53:29;8.82;;;2.03;;
25567;SDS011;13455;51.480;7.594;2022-10-23T15:55:54;9.90;;;1.90;;
25567;SDS011;13455;51.480;7.594;2022-10-23T15:58:22;11.82;;;2.15;;
25567;SDS011;13455;51.480;7.594;2022-10-23T16:00:48;9.15;;;1.80;;
25567;SDS011;13455;51.480;7.594;2022-10-23T16:03:14;9.63;;;2.20;;
25567;SDS011;13455;51.480;7.594;2022-10-23T16:05:40;9.32;;;2.20;;
25567;SDS011;13455;51.480;7.594;2022-10-23T16:08:06;6.22;;;1.83;;
25567;SDS011;13455;51.480;7.594;2022-10-23T16:10:32;8.75;;;2.03;;
25567;SDS011;13455;51.480;7.594;2022-10-23T16:12:58;10.27;;;2.50;;
25567;SDS011;13455;51.480;7.594;2022-10-23T16:15:23;9.53;;;2.20;;
25567;SDS011;13455;51.480;7.594;2022-10-23T16:17:49;11.20;;;2.00;;
25567;SDS011;13455;51.480;7.594;2022-10-23T16:20:15;8.07;;;2.00;;
25567;SDS011;13455;51.480;7.594;2022-10-23T16:22:41;11.80;;;2.65;;
25567;SDS011;13455;51.480;7.594;2022-10-23T16:25:06;9.68;;;2.40;;
25567;SDS011;13455;51.480;7.594;2022-10-23T16:27:32;11.10;;;2.30;;
25567;SDS011;13455;51.480;7.594;2022-10-23T16:29:58;6.97;;;2.03;;
25567;SDS011;13455;51.480;7.594;2022-10-23T16:32:23;8.65;;;2.13;;
25567;SDS011;13455;51.480;7.594;2022-10-23T16:34:49;8.43;;;2.30;;
25567;SDS011;13455;51.480;7.594;2022-10-23T16:37:15;10.40;;;2.30;;
25567;SDS011;13455;51.480;7.594;2022-10-23T16:39:40;5.90;;;2.20;;
25567;SDS011;13455;51.480;7.594;2022-10-23T16:42:06;7.55;;;2.22;;
25567;SDS011;13455;51.480;7.594;2022-10-23T16:44:31;8.30;;;2.40;;
25567;SDS011;13455;51.480;7.594;2022-10-23T16:46:57;8.73;;;2.50;;
25567;SDS011;13455;51.480;7.594;2022-10-23T16:49:23;11.05;;;2.53;;
25567;SDS011;13455;51.480;7.594;2022-10-23T16:51:49;8.20;;;2.03;;
25567;SDS011;13455;51.480;7.594;2022-10-23T16:54:14;8.10;;;2.35;;
25567;SDS011;13455;51.480;7.594;2022-10-23T16:56:41;9.07;;;2.47;;
25567;SDS011;13455;51.480;7.594;2022-10-23T16:59:09;8.18;;;2.58;;
25567;SDS011;13455;51.480;7.594;2022-10-23T17:01:35;8.70;;;2.50;;
25567;SDS011;13455;51.480;7.594;2022-10-23T17:04:01;14.57;;;2.60;;
25567;SDS011;13455;51.480;7.594;2022-10-23T17:06:27;7.40;;;1.90;;
25567;SDS011;13455;51.480;7.594;2022-10-23T17:08:55;9.63;;;2.30;;
25567;SDS011;13455;51.480;7.594;2022-10-23T17:11:23;9.88;;;2.35;;
25567;SDS011;13455;51.480;7.594;2022-10-23T17:13:52;11.60;;;3.50;;
25567;SDS011;13455;51.480;7.594;2022-10-23T17:16:20;9.15;;;3.20;;
25567;SDS011;13455;51.480;7.594;2022-10-23T17:18:48;10.75;;;4.43;;
25567;SDS011;13455;51.480;7.594;2022-10-23T17:21:14;12.17;;;3.50;;
25567;SDS011;13455;51.480;7.594;2022-10-23T17:23:42;12.48;;;3.03;;
25567;SDS011;13455;51.480;7.594;2022-10-23T17:26:13;8.90;;;2.50;;
25567;SDS011;13455;51.480;7.594;2022-10-23T17:28:40;7.67;;;2.60;;
25567;SDS011;13455;51.480;7.594;2022-10-23T17:31:14;12.52;;;2.70;;
25567;SDS011;13455;51.480;7.594;2022-10-23T17:33:44;9.48;;;2.95;;